createdAt,value
2023-02-06T00:01:38.876Z,81.71
2023-02-06T00:04:07.556Z,81.63
2023-02-06T00:06:35.832Z,81.31
2023-02-06T00:09:04.925Z,81.21
2023-02-06T00:11:33.304Z,80.88
2023-02-06T00:14:01.511Z,81.04
2023-02-06T00:16:32.401Z,81.07
2023-02-06T00:19:01.029Z,80.63
2023-02-06T00:21:30.953Z,80.86
2023-02-06T00:24:01.253Z,80.74
2023-02-06T00:26:31.564Z,80.09
2023-02-06T00:28:59.961Z,79.57
2023-02-06T00:31:28.265Z,79.18
2023-02-06T00:33:56.707Z,79.20
2023-02-06T00:36:24.886Z,79.27
2023-02-06T00:38:53.362Z,79.37
2023-02-06T00:41:21.741Z,79.31
2023-02-06T00:43:52.591Z,78.90
2023-02-06T00:46:21.415Z,78.62
2023-02-06T00:48:49.758Z,78.73
2023-02-06T00:51:20.178Z,78.48
2023-02-06T00:53:50.984Z,78.69
2023-02-06T00:56:20.924Z,78.66
2023-02-06T00:58:49.313Z,78.55
2023-02-06T01:01:18.094Z,78.28
2023-02-06T01:03:46.472Z,78.38
2023-02-06T01:06:14.973Z,78.53
2023-02-06T01:08:43.953Z,78.64
2023-02-06T01:11:14.886Z,78.76
2023-02-06T01:13:43.887Z,78.72
2023-02-06T01:16:14.948Z,78.66
2023-02-06T01:18:43.722Z,78.29
2023-02-06T01:21:21.496Z,77.78
2023-02-06T01:23:51.653Z,77.78
2023-02-06T01:26:23.188Z,77.62
2023-02-06T01:28:51.658Z,77.71
2023-02-06T01:31:25.404Z,78.08
2023-02-06T01:33:55.138Z,78.04
2023-02-06T01:36:23.839Z,77.98
2023-02-06T01:38:52.655Z,77.70
2023-02-06T01:41:23.798Z,77.38
2023-02-06T01:44:22.136Z,77.20
2023-02-06T01:46:53.278Z,76.96
2023-02-06T01:49:31.122Z,76.66
2023-02-06T01:52:02.881Z,76.60
2023-02-06T01:54:31.774Z,76.49
2023-02-06T01:57:04.180Z,76.22
2023-02-06T01:59:33.446Z,75.99
2023-02-06T02:02:02.147Z,75.68
2023-02-06T02:04:33.426Z,75.41
2023-02-06T02:07:23.056Z,75.75
2023-02-06T02:09:51.947Z,75.58
2023-02-06T02:12:20.807Z,75.61
2023-02-06T02:14:52.569Z,75.84
2023-02-06T02:17:35.930Z,75.40
2023-02-06T02:20:24.590Z,75.39
2023-02-06T02:23:25.017Z,75.04
2023-02-06T02:26:22.146Z,75.22
2023-02-06T02:29:21.785Z,75.28
2023-02-06T02:32:14.331Z,75.33
2023-02-06T02:34:59.606Z,75.55
2023-02-06T02:37:52.823Z,75.33
2023-02-06T02:40:57.503Z,75.64
2023-02-06T02:43:37.758Z,75.72
2023-02-06T02:46:15.371Z,75.99
2023-02-06T02:48:47.569Z,75.92
2023-02-06T02:51:17.535Z,75.73
2023-02-06T02:53:46.123Z,75.72
2023-02-06T02:56:21.732Z,75.85
2023-02-06T02:59:11.238Z,75.91
2023-02-06T03:01:49.765Z,75.89
2023-02-06T03:04:35.425Z,76.03
2023-02-06T03:07:08.937Z,76.07
2023-02-06T03:09:41.311Z,76.25
2023-02-06T03:12:12.772Z,76.39
2023-02-06T03:14:49.382Z,76.33
2023-02-06T03:17:27.132Z,76.47
2023-02-06T03:19:59.202Z,76.20
2023-02-06T03:22:29.320Z,76.36
2023-02-06T03:24:59.342Z,76.28
2023-02-06T03:27:29.148Z,76.39
2023-02-06T03:29:59.364Z,76.37
2023-02-06T03:32:32.438Z,76.69
2023-02-06T03:35:25.630Z,76.70
2023-02-06T03:37:54.307Z,76.96
2023-02-06T03:40:23.207Z,77.31
2023-02-06T03:42:56.924Z,77.32
2023-02-06T03:45:36.927Z,77.38
2023-02-06T03:48:11.552Z,77.55
2023-02-06T03:50:43.539Z,77.60
2023-02-06T03:53:14.187Z,77.79
2023-02-06T03:55:45.580Z,77.86
2023-02-06T03:58:15.236Z,77.99
2023-02-06T04:00:46.164Z,78.02
2023-02-06T04:03:15.278Z,78.18
2023-02-06T04:05:43.562Z,78.34
2023-02-06T04:08:11.726Z,78.55
2023-02-06T04:10:40.003Z,78.90
2023-02-06T04:13:08.180Z,78.94
2023-02-06T04:15:36.901Z,79.21
2023-02-06T04:18:06.202Z,79.35
2023-02-06T04:20:34.549Z,79.26
2023-02-06T04:23:03.026Z,79.41
2023-02-06T04:25:31.097Z,79.28
2023-02-06T04:27:59.417Z,79.35
2023-02-06T04:30:28.251Z,79.45
2023-02-06T04:32:56.596Z,79.81
2023-02-06T04:35:24.817Z,79.68
2023-02-06T04:37:53.201Z,79.64
2023-02-06T04:40:21.371Z,79.93
2023-02-06T04:42:49.657Z,79.92
2023-02-06T04:45:18.028Z,79.82
2023-02-06T04:47:49.581Z,79.81
2023-02-06T04:50:18.680Z,79.81
2023-02-06T04:52:46.954Z,79.95
2023-02-06T04:55:15.233Z,79.80
2023-02-06T04:57:43.922Z,79.73
2023-02-06T05:00:13.658Z,79.63
2023-02-06T05:02:41.935Z,79.55
2023-02-06T05:05:10.815Z,79.50
2023-02-06T05:07:39.080Z,79.52
2023-02-06T05:10:09.310Z,79.57
2023-02-06T05:12:38.390Z,79.68
2023-02-06T05:15:07.896Z,79.74
2023-02-06T05:17:36.578Z,79.69
2023-02-06T05:20:06.501Z,79.52
2023-02-06T05:22:34.773Z,79.68
2023-02-06T05:25:02.948Z,79.69
2023-02-06T05:27:31.233Z,79.56
2023-02-06T05:29:59.614Z,79.60
2023-02-06T05:32:27.783Z,79.25
2023-02-06T05:34:56.166Z,79.36
2023-02-06T05:37:24.860Z,79.24
2023-02-06T05:39:53.124Z,78.99
2023-02-06T05:42:21.541Z,78.73
2023-02-06T05:44:50.281Z,78.53
2023-02-06T05:47:18.358Z,78.44
2023-02-06T05:49:48.372Z,78.52
2023-02-06T05:52:16.752Z,78.52
2023-02-06T05:54:45.023Z,78.64
2023-02-06T05:57:13.146Z,78.70
2023-02-06T05:59:41.481Z,78.57
2023-02-06T06:02:10.033Z,78.50
2023-02-06T06:04:38.281Z,78.57
2023-02-06T06:07:07.036Z,78.20
2023-02-06T06:09:35.309Z,78.35
2023-02-06T06:12:04.097Z,78.17
2023-02-06T06:14:32.375Z,77.91
2023-02-06T06:17:00.650Z,78.14
2023-02-06T06:19:28.824Z,78.31
2023-02-06T06:21:58.319Z,78.02
2023-02-06T06:24:27.026Z,78.10
2023-02-06T06:26:55.330Z,78.02
2023-02-06T06:29:23.672Z,77.81
2023-02-06T06:31:52.011Z,77.52
2023-02-06T06:34:20.634Z,77.28
2023-02-06T06:36:48.917Z,77.06
2023-02-06T06:39:17.191Z,76.35
2023-02-06T06:41:45.669Z,75.90
2023-02-06T06:44:14.253Z,75.68
2023-02-06T06:46:42.631Z,76.13
2023-02-06T06:49:10.806Z,75.20
2023-02-06T06:51:39.293Z,74.46
2023-02-06T06:54:10.274Z,74.58
2023-02-06T06:56:38.402Z,73.99
2023-02-06T06:59:06.576Z,74.03
2023-02-06T07:01:34.957Z,74.31
2023-02-06T07:04:03.333Z,73.70
2023-02-06T07:06:31.821Z,73.01
2023-02-06T07:08:59.992Z,72.04
2023-02-06T07:11:28.241Z,72.74
2023-02-06T07:13:56.442Z,73.23
2023-02-06T07:16:24.912Z,73.10
2023-02-06T07:18:53.201Z,73.17
2023-02-06T07:21:21.682Z,72.85
2023-02-06T07:23:50.062Z,72.72
2023-02-06T07:26:18.413Z,72.63
2023-02-06T07:28:48.460Z,72.53
2023-02-06T07:31:16.774Z,72.55
2023-02-06T07:33:44.912Z,72.55
2023-02-06T07:36:15.637Z,71.86
2023-02-06T07:38:43.821Z,72.06
2023-02-06T07:41:12.829Z,70.36
2023-02-06T07:43:41.203Z,70.05
2023-02-06T07:46:09.710Z,69.77
2023-02-06T07:48:38.356Z,69.96
2023-02-06T07:51:08.632Z,69.73
2023-02-06T07:53:38.192Z,70.14
2023-02-06T07:56:15.367Z,69.43
2023-02-06T07:58:44.079Z,69.72
2023-02-06T08:01:12.698Z,69.79
2023-02-06T08:03:40.929Z,69.43
2023-02-06T08:06:11.290Z,68.29
2023-02-06T08:08:39.428Z,69.40
2023-02-06T08:11:09.437Z,68.37
2023-02-06T08:13:38.232Z,68.10
2023-02-06T08:16:08.524Z,68.10
2023-02-06T08:18:37.750Z,67.93
2023-02-06T08:21:12.290Z,68.08
2023-02-06T08:23:40.957Z,67.21
2023-02-06T08:26:15.933Z,66.81
2023-02-06T08:28:47.233Z,66.50
2023-02-06T08:31:20.248Z,65.91
2023-02-06T08:33:49.322Z,65.85
2023-02-06T08:36:19.486Z,65.45
2023-02-06T08:38:48.848Z,66.12
2023-02-06T08:41:24.801Z,66.30
2023-02-06T08:43:55.831Z,66.78
2023-02-06T08:46:28.921Z,66.65
2023-02-06T08:49:04.926Z,67.19
2023-02-06T08:51:34.878Z,67.61
2023-02-06T08:54:05.895Z,68.07
2023-02-06T08:56:36.630Z,68.09
2023-02-06T08:59:06.715Z,68.52
2023-02-06T09:01:36.857Z,68.54
2023-02-06T09:04:08.690Z,68.68
2023-02-06T09:06:42.596Z,68.57
2023-02-06T09:09:12.637Z,69.15
2023-02-06T09:11:42.318Z,69.41
2023-02-06T09:14:14.947Z,69.63
2023-02-06T09:16:43.480Z,69.35
2023-02-06T09:19:12.066Z,68.34
2023-02-06T09:21:40.470Z,68.61
2023-02-06T09:24:09.951Z,67.81
2023-02-06T09:26:58.109Z,67.33
2023-02-06T09:29:32.236Z,67.69
2023-02-06T09:32:01.485Z,67.69
2023-02-06T09:34:30.189Z,68.53
2023-02-06T09:36:58.782Z,69.68
2023-02-06T09:39:27.563Z,70.82
2023-02-06T09:42:07.768Z,72.53
2023-02-06T09:44:42.213Z,74.42
2023-02-06T09:47:28.327Z,75.29
2023-02-06T09:50:07.998Z,76.00
2023-02-06T09:53:07.518Z,76.49
2023-02-06T09:55:40.982Z,76.36
2023-02-06T09:58:44.585Z,76.43
2023-02-06T10:01:20.789Z,76.08
2023-02-06T10:04:13.293Z,76.02
2023-02-06T10:06:49.976Z,76.77
2023-02-06T10:09:25.588Z,77.39
2023-02-06T10:12:01.706Z,77.77
2023-02-06T10:14:38.964Z,78.26
2023-02-06T10:17:30.556Z,78.52
2023-02-06T10:20:17.626Z,76.14
2023-02-06T10:22:54.288Z,74.74
2023-02-06T10:25:29.174Z,74.57
2023-02-06T10:28:01.641Z,74.63
2023-02-06T10:31:15.583Z,74.13
2023-02-06T10:34:00.002Z,72.93
2023-02-06T10:36:57.765Z,72.98
2023-02-06T10:39:51.134Z,72.71
2023-02-06T10:42:25.388Z,72.72
2023-02-06T10:45:22.125Z,72.41
2023-02-06T10:48:01.610Z,72.57
2023-02-06T10:50:55.360Z,73.19
2023-02-06T10:53:32.939Z,73.16
2023-02-06T10:56:06.997Z,72.62
2023-02-06T10:58:46.860Z,72.07
2023-02-06T11:01:25.578Z,72.70
2023-02-06T11:04:10.969Z,71.77
2023-02-06T11:06:42.546Z,72.02
2023-02-06T11:09:11.002Z,70.87
2023-02-06T11:11:51.464Z,70.29
2023-02-06T11:14:33.358Z,68.92
2023-02-06T11:17:01.937Z,66.66
2023-02-06T11:19:40.560Z,67.15
2023-02-06T11:22:12.830Z,66.56
2023-02-06T11:25:03.341Z,66.62
2023-02-06T11:27:33.958Z,66.87
2023-02-06T11:30:25.382Z,66.57
2023-02-06T11:33:08.611Z,65.95
2023-02-06T11:36:01.536Z,66.44
2023-02-06T11:38:32.291Z,67.08
2023-02-06T11:41:17.052Z,67.63
2023-02-06T11:43:50.594Z,65.97
2023-02-06T11:46:24.031Z,66.54
2023-02-06T11:48:59.700Z,66.90
2023-02-06T11:52:11.600Z,67.01
2023-02-06T11:54:39.621Z,66.12
2023-02-06T11:57:23.624Z,66.33
2023-02-06T11:59:58.130Z,66.45
2023-02-06T12:02:32.645Z,67.69
2023-02-06T12:05:12.123Z,67.39
2023-02-06T12:07:50.518Z,67.57
2023-02-06T12:10:23.730Z,68.35
2023-02-06T12:13:05.713Z,68.19
2023-02-06T12:15:48.408Z,67.26
2023-02-06T12:18:22.230Z,67.29
2023-02-06T12:20:56.344Z,66.28
2023-02-06T12:23:31.991Z,66.88
2023-02-06T12:26:06.675Z,67.03
2023-02-06T12:28:42.268Z,67.22
2023-02-06T12:31:19.451Z,67.97
2023-02-06T12:33:54.970Z,68.21
2023-02-06T12:36:39.909Z,68.01
2023-02-06T12:39:19.737Z,68.09
2023-02-06T12:42:18.863Z,68.78
2023-02-06T12:44:59.791Z,69.19
2023-02-06T12:47:40.047Z,69.62
2023-02-06T12:50:14.649Z,70.00
2023-02-06T12:52:48.481Z,69.96
2023-02-06T12:55:37.510Z,70.31
2023-02-06T12:58:23.834Z,70.73
2023-02-06T13:01:29.275Z,71.03
2023-02-06T13:04:04.603Z,71.55
2023-02-06T13:07:03.119Z,70.45
2023-02-06T13:09:35.284Z,69.41
2023-02-06T13:12:13.491Z,69.84
2023-02-06T13:15:21.296Z,70.26
2023-02-06T13:17:54.487Z,70.15
2023-02-06T13:20:26.036Z,70.15
2023-02-06T13:23:16.182Z,70.77
2023-02-06T13:25:44.305Z,71.07
2023-02-06T13:28:21.970Z,70.66
2023-02-06T13:31:00.999Z,70.77
2023-02-06T13:33:51.475Z,71.79
2023-02-06T13:36:50.118Z,72.56
2023-02-06T13:39:28.098Z,73.17
2023-02-06T13:42:01.141Z,73.80
2023-02-06T13:44:36.887Z,74.44
2023-02-06T13:47:08.324Z,74.63
2023-02-06T13:50:17.144Z,74.52
2023-02-06T13:53:15.423Z,74.86
2023-02-06T13:56:08.377Z,75.02
2023-02-06T13:58:51.504Z,75.16
2023-02-06T14:01:26.573Z,74.88
2023-02-06T14:03:55.527Z,75.31
2023-02-06T14:06:56.984Z,75.34
2023-02-06T14:10:02.749Z,75.39
2023-02-06T14:12:39.444Z,74.96
2023-02-06T14:15:25.811Z,75.32
2023-02-06T14:18:03.304Z,75.67
2023-02-06T14:21:03.018Z,75.73
2023-02-06T14:23:45.254Z,75.93
2023-02-06T14:26:32.439Z,75.80
2023-02-06T14:29:03.899Z,76.13
2023-02-06T14:31:58.708Z,76.27
2023-02-06T14:34:39.163Z,76.78
2023-02-06T14:37:25.863Z,76.81
2023-02-06T14:39:57.364Z,77.12
2023-02-06T14:42:42.851Z,77.03
2023-02-06T14:45:21.651Z,77.28
2023-02-06T14:47:51.535Z,77.17
2023-02-06T14:50:30.639Z,77.02
2023-02-06T14:53:08.674Z,77.15
2023-02-06T14:55:40.520Z,77.53
2023-02-06T14:58:46.348Z,77.55
2023-02-06T15:01:17.646Z,77.47
2023-02-06T15:03:48.931Z,77.48
2023-02-06T15:06:35.593Z,77.16
2023-02-06T15:09:05.670Z,77.19
2023-02-06T15:11:34.804Z,77.48
2023-02-06T15:14:20.751Z,77.50
2023-02-06T15:16:50.622Z,77.22
2023-02-06T15:19:24.782Z,76.95
2023-02-06T15:22:01.568Z,77.09
2023-02-06T15:24:54.556Z,77.13
2023-02-06T15:27:32.364Z,77.31
2023-02-06T15:30:01.250Z,77.38
2023-02-06T15:32:31.581Z,77.36
2023-02-06T15:35:01.498Z,77.59
2023-02-06T15:37:35.583Z,77.83
2023-02-06T15:40:18.953Z,77.65
2023-02-06T15:42:49.185Z,77.71
2023-02-06T15:45:27.198Z,77.77
2023-02-06T15:47:56.212Z,77.52
2023-02-06T15:50:28.559Z,77.64
2023-02-06T15:52:57.112Z,77.48
2023-02-06T15:55:32.131Z,77.58
2023-02-06T15:58:04.215Z,77.12
2023-02-06T16:00:36.579Z,77.37
2023-02-06T16:03:08.658Z,75.89
2023-02-06T16:05:43.175Z,74.87
2023-02-06T16:08:21.692Z,73.95
2023-02-06T16:10:57.285Z,73.92
2023-02-06T16:13:28.294Z,73.61
2023-02-06T16:16:11.626Z,73.42
2023-02-06T16:18:40.616Z,73.07
2023-02-06T16:21:17.797Z,72.90
2023-02-06T16:23:47.908Z,73.42
2023-02-06T16:26:21.511Z,73.20
2023-02-06T16:28:58.286Z,73.53
2023-02-06T16:31:28.829Z,73.51
2023-02-06T16:34:04.563Z,73.85
2023-02-06T16:36:33.700Z,73.60
2023-02-06T16:39:04.411Z,73.61
2023-02-06T16:41:37.175Z,73.69
2023-02-06T16:44:13.031Z,73.93
2023-02-06T16:46:42.132Z,73.81
2023-02-06T16:49:19.177Z,74.15
2023-02-06T16:51:50.250Z,74.23
2023-02-06T16:54:24.161Z,74.26
2023-02-06T16:56:54.588Z,74.79
2023-02-06T16:59:23.064Z,75.87
2023-02-06T17:01:51.138Z,76.97
2023-02-06T17:04:19.313Z,78.07
2023-02-06T17:06:48.143Z,78.51
2023-02-06T17:09:18.879Z,78.58
2023-02-06T17:11:47.115Z,78.77
2023-02-06T17:14:15.289Z,79.28
2023-02-06T17:16:43.785Z,79.86
2023-02-06T17:19:15.056Z,80.11
2023-02-06T17:21:43.745Z,81.25
2023-02-06T17:24:11.895Z,81.05
2023-02-06T17:26:40.163Z,80.97
2023-02-06T17:29:08.531Z,82.11
2023-02-06T17:31:36.980Z,82.89
2023-02-06T17:34:05.392Z,82.78
2023-02-06T17:36:39.710Z,82.38
2023-02-06T17:39:07.886Z,82.57
2023-02-06T17:41:36.425Z,83.18
2023-02-06T17:44:05.589Z,83.60
2023-02-06T17:46:34.000Z,83.79
2023-02-06T17:49:02.535Z,84.34
2023-02-06T17:51:31.935Z,83.92
2023-02-06T17:54:00.314Z,84.13
2023-02-06T17:56:28.491Z,83.89
2023-02-06T17:58:56.767Z,83.90
2023-02-06T18:01:25.505Z,83.85
2023-02-06T18:03:54.037Z,83.57
2023-02-06T18:06:22.418Z,83.53
2023-02-06T18:08:50.798Z,83.26
2023-02-06T18:11:21.331Z,83.45
2023-02-06T18:13:50.531Z,83.46
2023-02-06T18:16:22.366Z,83.49
2023-02-06T18:18:51.406Z,83.67
2023-02-06T18:21:21.556Z,83.47
2023-02-06T18:23:49.774Z,83.00
2023-02-06T18:26:19.387Z,82.65
2023-02-06T18:28:50.628Z,81.97
2023-02-06T18:31:29.379Z,81.18
2023-02-06T18:33:58.040Z,80.97
2023-02-06T18:36:26.944Z,80.56
2023-02-06T18:38:57.251Z,80.42
2023-02-06T18:41:44.167Z,79.59
2023-02-06T18:44:12.743Z,79.52
2023-02-06T18:46:41.041Z,79.24
2023-02-06T18:49:09.299Z,79.06
2023-02-06T18:51:37.776Z,78.99
2023-02-06T18:54:07.936Z,79.19
2023-02-06T18:56:39.966Z,79.24
2023-02-06T18:59:08.243Z,79.31
2023-02-06T19:01:36.538Z,79.45
2023-02-06T19:04:05.307Z,79.59
2023-02-06T19:06:36.707Z,79.57
2023-02-06T19:09:07.306Z,79.53
2023-02-06T19:11:38.128Z,79.62
2023-02-06T19:14:08.787Z,79.76
2023-02-06T19:16:38.719Z,79.78
2023-02-06T19:19:10.330Z,79.59
2023-02-06T19:21:39.735Z,79.63
2023-02-06T19:24:08.325Z,79.74
2023-02-06T19:26:36.613Z,79.81
2023-02-06T19:29:05.117Z,79.89
2023-02-06T19:31:35.178Z,79.79
2023-02-06T19:34:03.891Z,80.26
2023-02-06T19:36:33.090Z,80.96
2023-02-06T19:39:07.410Z,81.21
2023-02-06T19:41:36.557Z,81.32
2023-02-06T19:44:08.564Z,81.33
2023-02-06T19:46:38.785Z,81.44
2023-02-06T19:49:08.851Z,81.68
2023-02-06T19:51:40.221Z,81.70
2023-02-06T19:54:08.829Z,82.00
2023-02-06T19:56:41.618Z,82.10
2023-02-06T19:59:19.411Z,82.20
2023-02-06T20:01:55.882Z,82.06
2023-02-06T20:04:27.805Z,81.94
2023-02-06T20:06:56.634Z,82.00
2023-02-06T20:09:27.169Z,82.09
2023-02-06T20:11:55.958Z,82.17
2023-02-06T20:14:25.271Z,82.30
2023-02-06T20:16:53.686Z,82.38
2023-02-06T20:19:24.986Z,82.43
2023-02-06T20:21:59.548Z,82.69
2023-02-06T20:24:30.442Z,83.12
2023-02-06T20:27:01.754Z,82.88
2023-02-06T20:29:33.863Z,82.73
2023-02-06T20:32:04.538Z,82.81
2023-02-06T20:34:33.363Z,82.65
2023-02-06T20:37:01.586Z,83.44
2023-02-06T20:39:31.154Z,83.68
2023-02-06T20:41:59.701Z,83.44
2023-02-06T20:44:28.844Z,83.31
2023-02-06T20:46:57.224Z,83.73
2023-02-06T20:49:28.719Z,84.18
2023-02-06T20:51:57.264Z,83.96
2023-02-06T20:54:26.066Z,83.86
2023-02-06T20:56:54.567Z,83.74
2023-02-06T20:59:23.212Z,83.05
2023-02-06T21:01:52.014Z,82.90
2023-02-06T21:04:20.709Z,83.02
2023-02-06T21:06:50.320Z,82.48
2023-02-06T21:09:18.578Z,82.13
2023-02-06T21:11:48.692Z,81.79
2023-02-06T21:14:19.948Z,81.52
2023-02-06T21:16:49.652Z,80.97
2023-02-06T21:19:21.238Z,80.95
2023-02-06T21:21:49.904Z,80.78
2023-02-06T21:24:18.787Z,80.43
2023-02-06T21:26:47.604Z,80.56
2023-02-06T21:29:16.531Z,80.19
2023-02-06T21:31:46.377Z,79.92
2023-02-06T21:34:23.059Z,79.89
2023-02-06T21:36:52.203Z,79.95
2023-02-06T21:39:23.716Z,79.92
2023-02-06T21:41:54.630Z,79.90
2023-02-06T21:44:26.523Z,79.64
2023-02-06T21:46:56.189Z,79.63
2023-02-06T21:49:25.008Z,79.87
2023-02-06T21:51:53.553Z,79.73
2023-02-06T21:54:22.490Z,79.53
2023-02-06T21:56:51.695Z,79.47
2023-02-06T21:59:20.056Z,78.77
2023-02-06T22:01:48.353Z,78.41
2023-02-06T22:04:16.857Z,78.17
2023-02-06T22:06:45.315Z,78.04
2023-02-06T22:09:15.864Z,78.16
2023-02-06T22:11:44.310Z,78.49
2023-02-06T22:14:17.926Z,78.51
2023-02-06T22:16:47.014Z,78.38
2023-02-06T22:19:16.515Z,78.40
2023-02-06T22:21:45.258Z,78.42
2023-02-06T22:24:13.796Z,78.33
2023-02-06T22:26:43.397Z,78.32
2023-02-06T22:29:15.005Z,78.29
2023-02-06T22:31:44.944Z,77.77
2023-02-06T22:34:19.030Z,77.93
2023-02-06T22:36:51.220Z,78.28
2023-02-06T22:39:19.964Z,78.47
2023-02-06T22:41:48.813Z,78.83
2023-02-06T22:44:19.376Z,78.98
2023-02-06T22:46:51.816Z,79.20
2023-02-06T22:49:21.643Z,79.41
2023-02-06T22:51:50.317Z,79.27
2023-02-06T22:54:18.696Z,79.48
2023-02-06T22:56:47.188Z,79.86
2023-02-06T22:59:24.672Z,79.96
2023-02-06T23:01:57.982Z,79.98
2023-02-06T23:04:34.724Z,79.92
2023-02-06T23:07:03.227Z,80.15
2023-02-06T23:09:34.790Z,80.15
2023-02-06T23:12:03.880Z,80.12
2023-02-06T23:14:33.520Z,79.63
2023-02-06T23:17:02.588Z,79.44
2023-02-06T23:19:31.320Z,79.44
2023-02-06T23:21:59.749Z,79.51
2023-02-06T23:24:28.131Z,79.36
2023-02-06T23:26:56.509Z,79.35
2023-02-06T23:29:25.766Z,79.25
2023-02-06T23:31:54.397Z,79.46
2023-02-06T23:34:24.517Z,79.22
2023-02-06T23:36:53.203Z,79.24
2023-02-06T23:39:21.559Z,79.15
2023-02-06T23:41:49.853Z,79.09
2023-02-06T23:44:18.946Z,79.03
2023-02-06T23:46:48.155Z,78.82
2023-02-06T23:49:16.425Z,78.63
2023-02-06T23:51:44.713Z,78.65
2023-02-06T23:54:13.383Z,78.53
2023-02-06T23:56:41.767Z,78.70
2023-02-06T23:59:10.652Z,78.43
